Time;durP1;ratioP1;P1;durP2;ratioP2;P2;SDS_P1;SDS_P2;PMS_P1;PMS_P2;Temp;Humidity;BMP_temperature;BMP_pressure;BME280_temperature;BME280_humidity;BME280_pressure;Samples;Min_cycle;Max_cycle;Signal;HPM_P1;HPM_P2
2022/06/28 00:01:57;;;;;;;17.40;16.03;;;13.10;99.90;;;;;;5052070;28;20468;-66
2022/06/28 00:04:25;;;;;;;16.90;15.47;;;13.10;99.90;;;;;;5059097;28;20468;-66
2022/06/28 00:06:53;;;;;;;18.37;16.53;;;13.10;99.90;;;;;;5057052;28;20459;-66
2022/06/28 00:09:21;;;;;;;17.40;15.80;;;13.00;99.90;;;;;;5052434;28;20492;-65
2022/06/28 00:11:48;;;;;;;27.40;16.17;;;13.00;99.90;;;;;;5054220;28;20963;-66
2022/06/28 00:17:00;;;;;;;17.33;15.40;;;13.20;99.90;;;;;;5054524;28;20553;-66
2022/06/28 00:19:28;;;;;;;18.43;16.80;;;13.20;99.90;;;;;;5053741;28;20460;-68
2022/06/28 00:21:57;;;;;;;18.50;16.43;;;13.20;99.90;;;;;;5053547;28;20539;-66
2022/06/28 00:24:24;;;;;;;16.80;15.60;;;13.20;99.90;;;;;;5047695;28;20668;-67
2022/06/28 00:26:51;;;;;;;16.70;15.50;;;13.20;99.90;;;;;;5055725;28;20465;-67
2022/06/28 00:29:18;;;;;;;16.90;15.50;;;13.20;99.90;;;;;;5054271;28;20459;-67
2022/06/28 00:31:46;;;;;;;17.37;16.20;;;13.20;99.90;;;;;;5052180;28;20470;-67
2022/06/28 00:34:14;;;;;;;18.70;16.63;;;13.20;99.90;;;;;;5051750;28;20517;-66
2022/06/28 00:36:42;;;;;;;17.97;16.40;;;13.20;99.90;;;;;;5059377;28;20496;-67
2022/06/28 00:39:12;;;;;;;17.13;15.83;;;13.20;99.90;;;;;;5050600;28;20467;-68
2022/06/28 00:41:39;;;;;;;23.40;15.80;;;13.20;99.90;;;;;;5050065;28;20468;-67
2022/06/28 00:44:06;;;;;;;18.20;16.53;;;13.20;99.90;;;;;;5051594;28;20970;-66
2022/06/28 00:46:34;;;;;;;18.53;16.53;;;13.20;99.90;;;;;;5058102;28;20459;-67
2022/06/28 00:49:02;;;;;;;18.10;16.30;;;13.10;99.90;;;;;;5046539;28;20506;-67
2022/06/28 00:51:30;;;;;;;17.37;16.07;;;13.10;99.90;;;;;;5059084;28;21051;-67
2022/06/28 00:53:59;;;;;;;16.90;15.47;;;13.10;99.90;;;;;;5054851;28;20467;-66
2022/06/28 00:56:28;;;;;;;17.47;16.17;;;13.10;99.90;;;;;;5058350;28;20501;-67
2022/06/28 00:58:55;;;;;;;17.63;16.07;;;13.10;99.90;;;;;;5049345;28;21005;-67
2022/06/28 01:01:23;;;;;;;16.97;15.67;;;13.00;99.90;;;;;;5051295;28;20459;-66
2022/06/28 01:03:50;;;;;;;17.13;15.83;;;13.00;99.90;;;;;;5056031;28;20458;-66
2022/06/28 01:06:18;;;;;;;17.20;15.73;;;13.00;99.90;;;;;;5047815;28;20476;-67
2022/06/28 01:08:46;;;;;;;18.27;16.80;;;13.00;99.90;;;;;;5050100;28;20491;-67
2022/06/28 01:11:22;;;;;;;17.63;16.03;;;13.00;99.90;;;;;;5054834;28;20996;-66
2022/06/28 01:13:53;;;;;;;18.43;15.43;;;12.90;99.90;;;;;;5056508;28;20458;-66
2022/06/28 01:16:21;;;;;;;16.50;15.50;;;12.90;99.90;;;;;;5053185;28;20479;-67
2022/06/28 01:18:48;;;;;;;18.07;16.47;;;12.80;99.90;;;;;;5048079;28;20470;-66
2022/06/28 01:21:17;;;;;;;16.70;15.67;;;12.80;99.90;;;;;;5046425;28;20460;-66
2022/06/28 01:23:48;;;;;;;17.27;15.87;;;12.80;99.90;;;;;;5051807;28;20740;-66
2022/06/28 01:26:19;;;;;;;17.73;16.13;;;12.70;99.90;;;;;;5052029;28;20984;-68
2022/06/28 01:28:47;;;;;;;17.77;16.20;;;12.50;99.90;;;;;;5055407;28;20478;-66
2022/06/28 01:31:15;;;;;;;18.90;16.80;;;12.40;99.90;;;;;;5049928;28;20504;-68
2022/06/28 01:33:42;;;;;;;16.53;15.37;;;12.30;99.90;;;;;;5053527;28;20490;-66
2022/06/28 01:36:10;;;;;;;16.93;15.90;;;12.20;99.90;;;;;;5051652;28;20868;-66
2022/06/28 01:38:38;;;;;;;18.33;16.80;;;12.10;99.90;;;;;;5045150;28;20460;-65
2022/06/28 01:41:32;;;;;;;16.70;15.60;;;12.00;99.90;;;;;;5056251;28;20987;-66
2022/06/28 01:43:59;;;;;;;17.13;15.97;;;12.00;99.90;;;;;;5055944;28;20454;-68
2022/06/28 01:46:27;;;;;;;17.90;16.70;;;12.00;99.90;;;;;;5055173;28;20476;-66
2022/06/28 01:48:55;;;;;;;16.63;15.30;;;12.00;99.90;;;;;;5051665;28;20455;-66
2022/06/28 01:51:22;;;;;;;19.17;17.10;;;11.90;99.90;;;;;;5051604;28;20452;-68
2022/06/28 01:53:49;;;;;;;17.60;15.90;;;11.80;99.90;;;;;;5054614;28;20814;-67
2022/06/28 01:56:17;;;;;;;18.30;16.93;;;11.70;99.90;;;;;;5053159;28;20483;-67
2022/06/28 01:58:44;;;;;;;18.10;16.50;;;11.50;99.90;;;;;;5055368;28;20842;-66
2022/06/28 02:01:11;;;;;;;17.50;16.40;;;11.50;99.90;;;;;;5050670;28;20459;-67
2022/06/28 02:03:38;;;;;;;20.93;16.40;;;11.40;99.90;;;;;;5048151;28;20541;-66
2022/06/28 02:06:06;;;;;;;17.63;16.30;;;11.30;99.90;;;;;;5057138;28;20471;-66
2022/06/28 02:08:34;;;;;;;18.20;16.40;;;11.20;99.90;;;;;;5056743;28;21211;-68
2022/06/28 02:11:03;;;;;;;18.03;16.70;;;11.20;99.90;;;;;;5052149;28;20470;-68
2022/06/28 02:16:13;;;;;;;17.77;16.67;;;11.10;99.90;;;;;;5056831;28;20490;-67
2022/06/28 02:18:40;;;;;;;21.10;19.10;;;11.00;99.90;;;;;;5057716;28;20467;-67
2022/06/28 02:21:08;;;;;;;18.60;17.00;;;11.00;99.90;;;;;;5058258;28;20837;-66
2022/06/28 02:23:36;;;;;;;18.80;17.13;;;11.00;99.90;;;;;;5058388;28;20470;-67
2022/06/28 02:26:03;;;;;;;19.20;17.60;;;10.90;99.90;;;;;;5059087;28;20486;-68
2022/06/28 02:28:31;;;;;;;19.73;16.53;;;10.90;99.90;;;;;;5053595;28;20984;-66
2022/06/28 02:30:58;;;;;;;17.50;16.50;;;10.90;99.90;;;;;;5049758;28;20492;-67
2022/06/28 02:33:25;;;;;;;17.57;16.27;;;10.80;99.90;;;;;;5057182;28;20464;-67
2022/06/28 02:41:21;;;;;;;19.07;17.97;;;10.80;99.90;;;;;;5056268;28;20500;-66
2022/06/28 02:43:49;;;;;;;18.53;17.17;;;10.90;99.90;;;;;;5054279;28;20454;-67
2022/06/28 02:46:15;;;;;;;20.03;18.57;;;11.00;99.90;;;;;;5055988;28;20498;-66
2022/06/28 02:48:42;;;;;;;18.27;17.20;;;11.00;99.90;;;;;;5054466;28;20483;-66
2022/06/28 02:51:09;;;;;;;19.00;17.70;;;11.10;99.90;;;;;;5058568;28;20513;-68
2022/06/28 02:53:37;;;;;;;20.63;16.90;;;11.20;99.90;;;;;;5056191;28;20461;-67
2022/06/28 02:56:05;;;;;;;18.40;17.20;;;11.20;99.90;;;;;;5057623;28;20838;-66
2022/06/28 02:58:32;;;;;;;19.10;17.50;;;11.30;99.90;;;;;;5060524;28;20875;-66
2022/06/28 03:01:01;;;;;;;19.30;17.90;;;11.40;99.90;;;;;;5052928;28;20973;-66
2022/06/28 03:03:28;;;;;;;18.93;17.43;;;11.30;99.90;;;;;;5058315;28;20500;-66
2022/06/28 03:05:54;;;;;;;22.23;17.70;;;11.30;99.90;;;;;;5061329;28;20463;-66
2022/06/28 03:08:22;;;;;;;18.07;16.63;;;11.30;99.90;;;;;;5049024;28;20514;-67
2022/06/28 03:10:51;;;;;;;18.60;17.17;;;11.50;99.90;;;;;;5054310;28;20849;-66
2022/06/28 03:13:18;;;;;;;18.90;17.43;;;11.60;99.90;;;;;;5056541;28;20550;-66
2022/06/28 03:15:46;;;;;;;18.53;16.90;;;11.70;99.90;;;;;;5059962;28;20474;-66
2022/06/28 03:18:14;;;;;;;18.13;16.87;;;11.70;99.90;;;;;;5059068;28;20834;-66
2022/06/28 03:20:42;;;;;;;18.47;16.87;;;11.60;99.90;;;;;;5056766;28;20804;-66
2022/06/28 03:23:09;;;;;;;17.83;16.57;;;11.50;99.90;;;;;;5055883;28;20463;-67
2022/06/28 03:25:36;;;;;;;19.90;18.40;;;11.50;99.90;;;;;;5055543;28;20494;-68
2022/06/28 03:28:04;;;;;;;17.33;15.90;;;11.50;99.90;;;;;;5050420;28;20833;-67
2022/06/28 03:30:32;;;;;;;18.63;17.00;;;11.50;99.90;;;;;;5052339;28;20513;-66
2022/06/28 03:33:00;;;;;;;19.33;17.90;;;11.50;99.90;;;;;;5060879;28;20474;-68
2022/06/28 03:35:28;;;;;;;21.43;17.40;;;11.50;99.90;;;;;;5049258;28;20475;-66
2022/06/28 03:37:55;;;;;;;18.53;17.00;;;11.50;99.90;;;;;;5055264;28;20494;-67
2022/06/28 03:40:22;;;;;;;18.63;17.23;;;11.40;99.90;;;;;;5055445;28;20463;-67
2022/06/28 03:42:49;;;;;;;19.47;17.50;;;11.40;99.90;;;;;;5051800;28;20863;-67
2022/06/28 03:45:16;;;;;;;23.20;20.43;;;11.50;99.90;;;;;;5058305;28;20830;-66
2022/06/28 03:47:44;;;;;;;18.90;17.50;;;11.50;99.90;;;;;;5055987;28;21051;-66
2022/06/28 03:50:12;;;;;;;18.90;17.00;;;11.50;99.90;;;;;;5055234;28;20468;-67
2022/06/28 03:52:40;;;;;;;18.53;17.00;;;11.40;99.90;;;;;;5061718;28;20462;-65
2022/06/28 03:55:10;;;;;;;22.77;17.50;;;11.30;99.90;;;;;;5054757;28;20466;-66
2022/06/28 03:57:38;;;;;;;19.83;17.90;;;11.20;99.90;;;;;;5050946;28;21023;-66
2022/06/28 04:00:06;;;;;;;20.13;18.60;;;11.10;99.90;;;;;;5052566;28;20467;-66
2022/06/28 04:02:33;;;;;;;21.07;18.97;;;11.10;99.90;;;;;;5039373;28;20478;-67
2022/06/28 04:05:00;;;;;;;20.13;18.37;;;11.00;99.90;;;;;;5030676;28;20478;-67
2022/06/28 04:07:27;;;;;;;18.53;17.17;;;11.00;99.90;;;;;;5046851;28;20459;-68
2022/06/28 04:09:55;;;;;;;19.37;17.53;;;10.90;99.90;;;;;;5052014;28;20513;-67
2022/06/28 04:12:22;;;;;;;20.20;18.80;;;10.90;99.90;;;;;;5049051;28;21013;-67
2022/06/28 04:14:49;;;;;;;21.20;19.57;;;10.90;99.90;;;;;;5044365;28;20510;-67
2022/06/28 04:17:16;;;;;;;21.40;19.63;;;10.90;99.90;;;;;;5028025;28;20561;-66
2022/06/28 04:19:43;;;;;;;21.60;19.50;;;11.00;99.90;;;;;;5029300;28;20458;-66
2022/06/28 04:22:10;;;;;;;21.33;18.37;;;11.00;99.90;;;;;;5027517;28;20500;-67
2022/06/28 04:24:37;;;;;;;18.17;16.90;;;11.00;99.90;;;;;;5027664;28;21187;-66
2022/06/28 04:27:06;;;;;;;18.77;17.47;;;11.10;99.90;;;;;;5028201;28;20476;-67
2022/06/28 04:29:33;;;;;;;18.93;17.50;;;11.10;99.90;;;;;;5029146;28;21085;-67
2022/06/28 04:31:59;;;;;;;21.97;18.80;;;11.10;99.90;;;;;;5028321;28;20471;-67
2022/06/28 04:34:26;;;;;;;19.60;18.30;;;11.20;99.90;;;;;;5028515;28;20865;-68
2022/06/28 04:36:53;;;;;;;20.67;18.97;;;11.20;99.90;;;;;;5027775;28;20479;-67
2022/06/28 04:39:20;;;;;;;20.10;17.90;;;11.30;99.90;;;;;;5028955;28;20479;-66
2022/06/28 04:41:47;;;;;;;20.17;18.27;;;11.30;99.90;;;;;;5029874;28;20962;-67
2022/06/28 04:44:15;;;;;;;22.93;18.10;;;11.40;99.90;;;;;;5028893;28;20478;-66
2022/06/28 04:46:42;;;;;;;19.53;18.03;;;11.50;99.90;;;;;;5027809;28;20455;-68
2022/06/28 04:49:09;;;;;;;20.37;18.47;;;11.70;99.90;;;;;;5027611;28;20674;-67
2022/06/28 04:51:36;;;;;;;20.17;18.30;;;11.80;99.90;;;;;;5029003;28;20478;-68
2022/06/28 04:54:03;;;;;;;19.20;17.53;;;11.90;99.90;;;;;;5028403;28;20772;-67
2022/06/28 04:56:30;;;;;;;18.83;17.43;;;12.00;99.90;;;;;;5029623;28;20578;-68
2022/06/28 04:58:57;;;;;;;19.03;17.70;;;12.10;99.90;;;;;;5029098;28;20456;-67
2022/06/28 05:01:25;;;;;;;18.43;16.60;;;12.30;99.90;;;;;;5028538;28;20456;-67
2022/06/28 05:03:52;;;;;;;19.43;17.80;;;12.40;99.90;;;;;;5028206;28;20829;-65
2022/06/28 05:06:19;;;;;;;17.97;16.83;;;12.60;99.90;;;;;;5028207;28;20464;-66
2022/06/28 05:08:46;;;;;;;18.63;16.70;;;12.70;99.90;;;;;;5027482;28;20500;-68
2022/06/28 05:11:13;;;;;;;23.50;17.90;;;12.80;99.90;;;;;;5027212;28;20800;-65
2022/06/28 05:13:40;;;;;;;18.37;16.87;;;13.00;99.90;;;;;;5029009;28;20840;-66
2022/06/28 05:16:07;;;;;;;19.37;16.87;;;13.20;99.90;;;;;;5025772;28;20464;-66
2022/06/28 05:18:35;;;;;;;17.70;16.27;;;13.30;99.90;;;;;;5027667;28;20499;-66
2022/06/28 05:21:02;;;;;;;19.47;16.67;;;13.30;99.90;;;;;;5028014;28;20459;-66
2022/06/28 05:23:28;;;;;;;17.53;15.70;;;13.40;99.90;;;;;;5026201;28;20471;-65
2022/06/28 05:25:55;;;;;;;17.63;16.07;;;13.40;99.90;;;;;;5026059;28;20475;-67
2022/06/28 05:28:22;;;;;;;24.17;15.23;;;13.50;99.90;;;;;;5026133;28;20471;-67
2022/06/28 05:30:49;;;;;;;16.13;14.50;;;13.50;99.90;;;;;;5027434;28;20481;-67
2022/06/28 05:33:16;;;;;;;17.47;15.63;;;13.70;99.90;;;;;;5026650;28;20971;-67
2022/06/28 05:35:44;;;;;;;15.50;14.20;;;13.70;99.90;;;;;;5026695;28;20986;-66
2022/06/28 05:38:11;;;;;;;17.93;15.87;;;13.70;99.90;;;;;;5026405;28;21363;-65
2022/06/28 05:40:37;;;;;;;15.77;14.43;;;13.80;99.90;;;;;;5027284;28;20464;-67
2022/06/28 05:43:04;;;;;;;15.00;13.87;;;13.80;99.90;;;;;;5027934;28;20969;-66
2022/06/28 05:45:31;;;;;;;15.37;14.30;;;13.90;99.90;;;;;;5030465;28;20513;-67
2022/06/28 05:47:58;;;;;;;16.77;15.60;;;14.00;99.90;;;;;;5032105;28;20460;-65
2022/06/28 05:50:25;;;;;;;15.10;14.00;;;14.20;99.90;;;;;;5035278;28;20473;-68
2022/06/28 05:52:54;;;;;;;14.80;13.60;;;14.30;99.90;;;;;;5055405;28;20463;-67
2022/06/28 05:55:21;;;;;;;20.17;13.13;;;14.40;99.90;;;;;;5054533;28;20813;-66
2022/06/28 05:57:48;;;;;;;14.83;13.73;;;14.50;99.90;;;;;;5053817;28;20488;-67
2022/06/28 06:00:16;;;;;;;15.93;13.77;;;14.60;99.90;;;;;;5030046;28;21825;-66
2022/06/28 06:02:42;;;;;;;13.53;12.33;;;14.70;99.90;;;;;;5028848;28;20792;-66
2022/06/28 06:05:09;;;;;;;13.07;11.80;;;14.80;99.90;;;;;;5028079;28;20797;-66
2022/06/28 06:07:36;;;;;;;16.17;11.30;;;14.80;99.90;;;;;;5029446;28;20463;-68
2022/06/28 06:10:05;;;;;;;13.40;12.50;;;14.90;99.90;;;;;;5028218;28;20510;-66
2022/06/28 06:12:32;;;;;;;17.97;12.10;;;14.90;99.90;;;;;;5027749;28;20513;-67
2022/06/28 06:17:40;;;;;;;12.30;11.10;;;15.20;99.90;;;;;;5031815;28;20491;-67
2022/06/28 06:20:08;;;;;;;12.60;11.57;;;15.30;99.90;;;;;;5028877;28;21085;-68
2022/06/28 06:22:35;;;;;;;12.90;11.77;;;15.20;99.90;;;;;;5027574;28;20471;-66
2022/06/28 06:25:04;;;;;;;13.83;12.47;;;15.20;99.90;;;;;;5027652;28;21670;-68
2022/06/28 06:27:31;;;;;;;13.20;12.00;;;15.30;99.90;;;;;;5026022;28;20608;-65
2022/06/28 06:29:58;;;;;;;17.97;12.57;;;15.40;99.90;;;;;;5030936;28;20472;-66
2022/06/28 06:32:25;;;;;;;14.13;12.27;;;15.60;99.90;;;;;;5031250;28;20469;-69
2022/06/28 06:34:52;;;;;;;14.53;13.17;;;15.70;99.90;;;;;;5032635;28;20859;-66
2022/06/28 06:37:19;;;;;;;13.93;12.50;;;15.80;99.90;;;;;;5032551;28;20545;-66
2022/06/28 06:39:46;;;;;;;12.97;12.07;;;15.70;99.90;;;;;;5040306;28;21000;-65
2022/06/28 06:42:14;;;;;;;13.20;12.20;;;15.70;99.90;;;;;;5038672;28;21290;-68
2022/06/28 06:44:41;;;;;;;13.60;12.63;;;15.80;99.90;;;;;;5029656;28;20470;-66
2022/06/28 06:47:08;;;;;;;17.60;13.57;;;15.90;99.90;;;;;;5027672;28;20853;-67
2022/06/28 06:49:35;;;;;;;14.80;13.33;;;16.00;99.90;;;;;;5029485;28;21087;-66
2022/06/28 06:52:02;;;;;;;13.97;12.90;;;16.10;99.90;;;;;;5029361;28;20479;-67
2022/06/28 06:54:29;;;;;;;13.93;13.13;;;16.20;99.90;;;;;;5028199;28;20463;-66
2022/06/28 06:56:55;;;;;;;15.00;13.70;;;16.30;99.90;;;;;;5027874;28;20477;-67
2022/06/28 06:59:23;;;;;;;14.67;13.67;;;16.50;99.90;;;;;;5027949;28;20463;-67
2022/06/28 07:01:50;;;;;;;15.50;14.37;;;16.50;99.90;;;;;;5028944;28;22581;-67
2022/06/28 07:04:17;;;;;;;15.53;14.00;;;16.70;99.90;;;;;;5027987;28;20460;-67
2022/06/28 07:06:44;;;;;;;15.50;13.20;;;16.90;99.90;;;;;;5030065;28;20474;-66
2022/06/28 07:09:11;;;;;;;15.80;14.40;;;16.90;99.90;;;;;;5028687;28;20595;-66
2022/06/28 07:11:38;;;;;;;16.10;13.70;;;17.00;99.90;;;;;;5029248;28;20991;-66
2022/06/28 07:14:04;;;;;;;15.07;13.97;;;17.20;99.90;;;;;;5028389;28;21004;-68
2022/06/28 07:16:32;;;;;;;15.33;13.90;;;17.30;99.90;;;;;;5028622;28;20464;-66
2022/06/28 07:18:59;;;;;;;15.70;14.40;;;17.60;99.90;;;;;;5028742;28;20491;-65
2022/06/28 07:21:27;;;;;;;18.73;15.13;;;17.70;99.90;;;;;;5027675;28;20467;-66
2022/06/28 07:23:55;;;;;;;16.27;14.63;;;17.80;99.90;;;;;;5027862;28;21213;-66
2022/06/28 07:26:22;;;;;;;15.83;14.47;;;17.90;99.90;;;;;;5029206;28;20951;-66
2022/06/28 07:28:49;;;;;;;17.73;14.53;;;18.10;99.90;;;;;;5028263;28;20460;-65
2022/06/28 07:31:16;;;;;;;16.57;15.17;;;18.50;99.90;;;;;;5029552;28;20474;-66
2022/06/28 07:33:44;;;;;;;17.73;14.87;;;18.50;99.90;;;;;;5028895;28;20460;-67
2022/06/28 07:36:11;;;;;;;17.03;14.97;;;18.70;99.90;;;;;;5029372;28;20569;-67
2022/06/28 07:38:38;;;;;;;16.10;14.33;;;18.90;99.90;;;;;;5029195;28;20496;-66
2022/06/28 07:41:05;;;;;;;16.50;15.30;;;18.80;99.90;;;;;;5028274;28;20473;-66
2022/06/28 07:43:32;;;;;;;18.60;15.70;;;18.90;99.90;;;;;;5027714;28;20470;-65
2022/06/28 07:45:59;;;;;;;17.83;16.00;;;19.00;99.90;;;;;;5026015;28;20463;-67
2022/06/28 07:48:26;;;;;;;16.67;15.67;;;19.10;99.90;;;;;;5027179;28;20452;-68
2022/06/28 07:53:38;;;;;;;17.70;16.27;;;19.30;99.90;;;;;;5027086;28;20455;-67
2022/06/28 07:56:05;;;;;;;21.70;17.60;;;19.60;99.90;;;;;;5027659;28;20507;-67
2022/06/28 07:58:32;;;;;;;17.43;16.13;;;19.70;99.90;;;;;;5028155;28;20535;-67
2022/06/28 08:00:59;;;;;;;17.60;15.90;;;19.80;99.90;;;;;;5027159;28;20456;-67
2022/06/28 08:03:26;;;;;;;17.13;15.73;;;19.70;99.90;;;;;;5024946;28;20467;-67
2022/06/28 08:05:54;;;;;;;16.93;15.80;;;20.00;99.90;;;;;;5027504;28;21592;-68
2022/06/28 08:08:21;;;;;;;16.37;15.37;;;20.50;99.90;;;;;;5027244;28;21107;-68
2022/06/28 08:10:48;;;;;;;16.47;15.57;;;21.30;99.90;;;;;;5026468;28;20492;-67
2022/06/28 08:13:16;;;;;;;17.10;15.50;;;22.00;99.90;;;;;;5046739;28;20957;-68
2022/06/28 08:15:43;;;;;;;17.10;15.50;;;23.00;99.90;;;;;;5056643;28;20526;-66
2022/06/28 08:18:10;;;;;;;16.43;15.13;;;23.70;99.90;;;;;;5050147;28;20487;-67
2022/06/28 08:20:37;;;;;;;17.03;15.90;;;24.40;99.90;;;;;;5057308;28;20476;-68
2022/06/28 08:23:06;;;;;;;17.00;15.73;;;24.70;99.90;;;;;;5028739;28;20487;-68
2022/06/28 08:25:33;;;;;;;15.90;15.00;;;25.10;99.90;;;;;;5027724;28;20483;-68
2022/06/28 08:28:00;;;;;;;16.40;15.30;;;25.30;99.90;;;;;;5027792;28;20455;-67
2022/06/28 08:30:27;;;;;;;15.77;14.77;;;25.40;99.90;;;;;;5027560;28;20460;-67
2022/06/28 08:32:54;;;;;;;16.57;15.60;;;25.20;99.90;;;;;;5026840;28;20479;-68
2022/06/28 08:35:22;;;;;;;15.57;14.63;;;25.80;99.90;;;;;;5025911;28;20448;-70
2022/06/28 08:37:49;;;;;;;17.13;16.23;;;26.30;98.10;;;;;;5023866;28;21024;-69
2022/06/28 08:40:18;;;;;;;16.13;15.33;;;26.50;96.10;;;;;;5024421;28;20463;-67
2022/06/28 08:42:49;;;;;;;16.30;15.50;;;26.20;95.10;;;;;;5025469;28;20467;-70
2022/06/28 08:45:17;;;;;;;16.70;15.70;;;26.50;94.50;;;;;;5022904;28;20552;-68
2022/06/28 08:47:47;;;;;;;16.50;15.37;;;26.00;94.40;;;;;;5027466;28;20472;-68
2022/06/28 08:50:19;;;;;;;16.77;15.73;;;26.50;94.20;;;;;;5023218;28;20872;-68
2022/06/28 08:52:46;;;;;;;17.60;15.80;;;26.50;95.00;;;;;;5026080;28;20526;-68
2022/06/28 08:55:13;;;;;;;16.70;15.50;;;26.40;94.70;;;;;;5025151;28;20494;-67
2022/06/28 08:57:42;;;;;;;17.27;15.70;;;26.40;95.00;;;;;;5054884;28;20463;-68
2022/06/28 09:00:11;;;;;;;16.87;15.73;;;26.70;93.60;;;;;;5033066;28;20895;-68
2022/06/28 09:02:39;;;;;;;16.67;15.67;;;26.80;92.90;;;;;;5027005;28;20725;-70
2022/06/28 09:05:07;;;;;;;16.00;15.10;;;26.40;92.30;;;;;;5023945;28;20957;-68
2022/06/28 09:07:34;;;;;;;16.30;15.40;;;26.80;90.40;;;;;;5023592;28;20468;-68
2022/06/28 09:10:01;;;;;;;15.90;15.10;;;26.20;92.10;;;;;;5054841;28;20486;-67
2022/06/28 09:12:28;;;;;;;16.07;15.17;;;26.50;90.80;;;;;;5043291;28;20848;-68
2022/06/28 09:14:58;;;;;;;15.70;14.80;;;26.90;90.90;;;;;;5053089;28;20468;-68
2022/06/28 09:17:26;;;;;;;16.30;15.30;;;27.70;89.80;;;;;;5031476;28;20468;-68
2022/06/28 09:19:56;;;;;;;15.40;14.63;;;27.70;88.00;;;;;;5029754;28;20502;-67
2022/06/28 09:22:32;;;;;;;16.20;14.87;;;27.60;84.50;;;;;;5028656;28;20479;-70
2022/06/28 09:25:00;;;;;;;15.90;14.73;;;27.50;82.00;;;;;;5025571;28;20499;-70
2022/06/28 09:27:32;;;;;;;16.83;15.13;;;27.90;85.70;;;;;;5030800;28;20525;-70
2022/06/28 09:30:01;;;;;;;16.37;15.27;;;29.00;80.20;;;;;;5027810;28;20495;-68
2022/06/28 09:32:30;;;;;;;17.33;15.87;;;29.20;78.70;;;;;;5029333;28;20882;-69
2022/06/28 09:35:00;;;;;;;17.43;15.93;;;28.70;78.20;;;;;;5053452;28;20554;-70
2022/06/28 09:37:49;;;;;;;16.73;15.53;;;29.10;77.00;;;;;;5043118;28;20466;-71
2022/06/28 09:40:18;;;;;;;16.73;15.60;;;28.80;77.80;;;;;;5026127;28;20559;-69
2022/06/28 09:42:47;;;;;;;16.80;15.33;;;29.10;73.10;;;;;;5026493;28;20490;-70
2022/06/28 09:45:17;;;;;;;18.30;16.60;;;29.20;75.20;;;;;;5026445;28;20469;-71
2022/06/28 09:47:49;;;;;;;16.87;15.73;;;30.20;70.10;;;;;;5026988;28;20689;-69
2022/06/28 09:50:20;;;;;;;17.63;16.30;;;30.60;67.50;;;;;;5026783;28;20460;-70
2022/06/28 09:52:47;;;;;;;17.37;15.97;;;30.80;63.20;;;;;;5030757;28;20463;-69
2022/06/28 09:55:17;;;;;;;16.70;15.70;;;31.20;60.00;;;;;;5042863;28;20467;-68
2022/06/28 09:57:45;;;;;;;16.93;15.40;;;30.80;61.30;;;;;;5052821;28;20700;-72
2022/06/28 10:00:16;;;;;;;17.73;16.40;;;31.00;63.10;;;;;;5028843;28;21149;-68
2022/06/28 10:02:44;;;;;;;17.20;15.90;;;30.80;60.30;;;;;;5027641;28;20997;-68
2022/06/28 10:05:11;;;;;;;17.70;16.60;;;31.00;56.90;;;;;;5030240;28;21265;-72
2022/06/28 10:07:38;;;;;;;17.27;16.10;;;31.00;56.00;;;;;;5025335;28;20476;-70
2022/06/28 10:10:07;;;;;;;16.80;15.50;;;31.60;55.20;;;;;;5030055;28;20498;-68
2022/06/28 10:15:23;;;;;;;16.50;15.50;;;30.90;55.40;;;;;;5045626;28;20571;-68
2022/06/28 10:17:55;;;;;;;17.27;15.90;;;31.30;55.60;;;;;;5029208;28;20467;-68
2022/06/28 10:20:25;;;;;;;16.90;15.90;;;31.90;54.20;;;;;;5027092;28;20479;-68
2022/06/28 10:22:53;;;;;;;16.83;15.83;;;31.90;51.50;;;;;;5030130;28;20474;-68
2022/06/28 10:25:22;;;;;;;16.23;15.30;;;31.70;52.80;;;;;;5026042;28;20547;-68
2022/06/28 10:27:50;;;;;;;16.80;15.70;;;31.30;55.10;;;;;;5026334;28;20478;-69
2022/06/28 10:30:28;;;;;;;17.10;15.67;;;32.30;53.10;;;;;;5055858;28;20490;-67
2022/06/28 10:32:56;;;;;;;17.10;15.87;;;32.30;48.50;;;;;;5051231;28;20506;-67
2022/06/28 10:35:52;;;;;;;16.90;16.00;;;31.50;48.40;;;;;;5053637;28;20459;-70
2022/06/28 10:38:19;;;;;;;16.97;15.53;;;31.70;49.70;;;;;;5026766;28;21147;-68
2022/06/28 10:40:49;;;;;;;16.63;15.40;;;32.10;49.40;;;;;;5029303;28;20467;-67
2022/06/28 10:43:17;;;;;;;16.47;15.53;;;32.30;48.00;;;;;;5013938;28;20995;-67
2022/06/28 10:46:07;;;;;;;16.63;15.37;;;32.70;46.70;;;;;;5015976;28;21440;-70
2022/06/28 10:49:06;;;;;;;15.90;15.00;;;32.90;45.30;;;;;;5018068;28;20499;-69
2022/06/28 10:51:34;;;;;;;16.93;15.63;;;33.50;42.90;;;;;;5030137;28;20882;-68
2022/06/28 10:54:05;;;;;;;16.30;15.40;;;33.70;42.30;;;;;;5028399;28;20463;-68
2022/06/28 10:56:35;;;;;;;16.30;15.13;;;33.90;42.00;;;;;;5029626;28;20478;-70
2022/06/28 10:59:04;;;;;;;15.90;15.03;;;33.40;42.50;;;;;;5029023;28;20513;-67
2022/06/28 11:01:54;;;;;;;15.33;14.57;;;33.20;42.90;;;;;;5029225;28;20472;-66
2022/06/28 11:04:28;;;;;;;16.07;15.03;;;32.80;42.90;;;;;;5029505;28;20616;-70
2022/06/28 11:06:57;;;;;;;16.37;15.47;;;32.20;41.70;;;;;;5029547;28;20516;-66
2022/06/28 11:09:48;;;;;;;16.00;14.90;;;31.80;40.90;;;;;;5027830;28;20506;-67
2022/06/28 11:12:17;;;;;;;15.93;14.73;;;31.40;41.40;;;;;;5029636;28;20503;-69
2022/06/28 11:14:52;;;;;;;15.97;15.00;;;32.40;43.10;;;;;;5028650;28;20459;-65
2022/06/28 11:17:24;;;;;;;16.43;15.10;;;33.00;40.90;;;;;;5029776;28;20470;-66
2022/06/28 11:19:54;;;;;;;16.53;15.50;;;33.20;41.90;;;;;;5028793;28;20463;-68
2022/06/28 11:22:24;;;;;;;16.70;15.70;;;34.00;39.60;;;;;;5028848;28;20455;-67
2022/06/28 11:24:52;;;;;;;16.10;15.13;;;34.90;38.70;;;;;;5028173;28;20484;-67
2022/06/28 11:27:21;;;;;;;16.20;15.30;;;35.00;39.30;;;;;;5028106;28;20476;-67
2022/06/28 11:29:53;;;;;;;16.93;15.77;;;35.40;37.40;;;;;;5029325;28;20550;-68
2022/06/28 11:32:22;;;;;;;15.70;15.00;;;35.70;35.70;;;;;;5028474;28;20483;-67
2022/06/28 11:34:59;;;;;;;16.50;15.30;;;35.40;38.00;;;;;;5028673;28;21500;-66
2022/06/28 11:37:27;;;;;;;15.53;14.63;;;34.70;37.00;;;;;;5028841;28;20483;-66
2022/06/28 11:39:55;;;;;;;15.93;14.90;;;35.10;36.80;;;;;;5028832;28;20472;-67
2022/06/28 11:42:22;;;;;;;15.27;14.47;;;35.80;35.40;;;;;;5028312;28;20451;-67
2022/06/28 11:44:50;;;;;;;15.47;14.47;;;35.70;34.00;;;;;;5027608;28;20472;-67
2022/06/28 11:47:17;;;;;;;15.97;14.63;;;35.70;34.90;;;;;;5028976;28;20557;-67
2022/06/28 11:49:45;;;;;;;15.17;14.37;;;36.10;32.40;;;;;;5028264;28;20873;-68
2022/06/28 11:52:16;;;;;;;16.03;14.53;;;36.60;32.60;;;;;;5028639;28;20456;-67
2022/06/28 11:54:45;;;;;;;14.37;13.67;;;36.70;33.10;;;;;;5029113;28;20939;-67
2022/06/28 11:57:16;;;;;;;14.20;13.57;;;36.70;32.30;;;;;;5027975;28;20989;-66
2022/06/28 12:00:02;;;;;;;15.27;14.17;;;35.50;33.00;;;;;;5028038;28;20474;-67
2022/06/28 12:02:46;;;;;;;14.93;14.13;;;33.70;33.80;;;;;;5028531;28;20472;-67
2022/06/28 12:05:14;;;;;;;16.23;14.70;;;34.00;35.40;;;;;;5028743;28;20824;-67
2022/06/28 12:10:28;;;;;;;14.80;14.10;;;35.40;34.10;;;;;;5029082;28;20502;-66
2022/06/28 12:12:55;;;;;;;14.90;14.00;;;35.90;32.60;;;;;;5024519;28;20967;-68
2022/06/28 12:15:26;;;;;;;16.10;14.60;;;36.60;34.10;;;;;;5028592;28;20560;-67
2022/06/28 12:17:56;;;;;;;14.90;14.07;;;37.40;30.70;;;;;;5029884;28;22533;-68
2022/06/28 12:20:23;;;;;;;15.50;14.70;;;37.70;30.30;;;;;;5028227;28;20470;-68
2022/06/28 12:23:03;;;;;;;15.80;14.70;;;37.70;31.40;;;;;;5026605;28;20471;-69
2022/06/28 12:25:30;;;;;;;14.20;13.47;;;38.30;32.40;;;;;;5025737;28;20887;-66
2022/06/28 12:27:57;;;;;;;14.70;13.97;;;38.00;31.20;;;;;;5026251;28;20733;-69
2022/06/28 12:30:24;;;;;;;15.70;14.90;;;38.10;32.30;;;;;;5027718;28;20993;-68
2022/06/28 12:32:52;;;;;;;14.43;13.73;;;37.70;31.80;;;;;;5026894;28;21643;-68
2022/06/28 12:35:21;;;;;;;15.60;14.80;;;37.60;31.70;;;;;;5027937;28;20471;-68
2022/06/28 12:37:49;;;;;;;14.70;14.00;;;37.70;29.90;;;;;;5027173;28;20467;-67
2022/06/28 12:40:18;;;;;;;15.33;14.63;;;36.70;30.00;;;;;;5028037;28;20478;-68
2022/06/28 12:42:45;;;;;;;14.43;13.70;;;36.20;30.10;;;;;;5026590;28;21210;-68
2022/06/28 12:45:12;;;;;;;15.73;14.80;;;35.00;30.30;;;;;;5027560;28;20467;-69
2022/06/28 12:47:41;;;;;;;14.97;14.17;;;34.20;31.30;;;;;;5026842;28;20463;-68
2022/06/28 12:50:13;;;;;;;14.77;13.87;;;34.20;33.40;;;;;;5027632;28;20495;-68
2022/06/28 12:52:41;;;;;;;14.77;13.97;;;33.50;34.90;;;;;;5026962;28;20466;-67
2022/06/28 12:55:10;;;;;;;15.00;14.20;;;33.60;35.70;;;;;;5026756;28;20528;-69
2022/06/28 12:57:39;;;;;;;14.70;14.00;;;34.30;35.20;;;;;;5026847;28;20452;-68